sensor_id;sensor_type;location;lat;lon;timestamp;temperature;humidity
18823;DHT22;9540;51.550;7.980;2022-08-11T00:01:03;14.40;99.90
18823;DHT22;9540;51.550;7.980;2022-08-11T00:03:34;14.30;99.90
18823;DHT22;9540;51.550;7.980;2022-08-11T00:06:02;14.30;99.90
18823;DHT22;9540;51.550;7.980;2022-08-11T00:08:30;14.30;99.90
18823;DHT22;9540;51.550;7.980;2022-08-11T00:11:01;14.20;99.90
18823;DHT22;9540;51.550;7.980;2022-08-11T00:13:34;14.20;99.90
18823;DHT22;9540;51.550;7.980;2022-08-11T00:16:02;14.20;99.90
18823;DHT22;9540;51.550;7.980;2022-08-11T00:18:38;14.10;99.90
18823;DHT22;9540;51.550;7.980;2022-08-11T00:21:05;14.00;99.90
18823;DHT22;9540;51.550;7.980;2022-08-11T00:23:33;14.00;99.90
18823;DHT22;9540;51.550;7.980;2022-08-11T00:26:06;14.00;99.90
18823;DHT22;9540;51.550;7.980;2022-08-11T00:28:34;13.90;99.90
18823;DHT22;9540;51.550;7.980;2022-08-11T00:31:04;13.80;99.90
18823;DHT22;9540;51.550;7.980;2022-08-11T00:33:36;13.70;99.90
18823;DHT22;9540;51.550;7.980;2022-08-11T00:36:05;13.60;99.90
18823;DHT22;9540;51.550;7.980;2022-08-11T00:38:37;13.50;99.90
18823;DHT22;9540;51.550;7.980;2022-08-11T00:41:19;13.50;99.90
18823;DHT22;9540;51.550;7.980;2022-08-11T00:44:11;13.40;99.90
18823;DHT22;9540;51.550;7.980;2022-08-11T00:46:49;13.40;99.90
18823;DHT22;9540;51.550;7.980;2022-08-11T00:49:31;13.30;99.90
18823;DHT22;9540;51.550;7.980;2022-08-11T00:52:28;13.30;99.90
18823;DHT22;9540;51.550;7.980;2022-08-11T00:55:33;13.30;99.90
18823;DHT22;9540;51.550;7.980;2022-08-11T01:01:09;13.10;99.90
18823;DHT22;9540;51.550;7.980;2022-08-11T01:03:58;13.00;99.90
18823;DHT22;9540;51.550;7.980;2022-08-11T01:06:46;12.90;99.90
18823;DHT22;9540;51.550;7.980;2022-08-11T01:09:43;12.90;99.90
18823;DHT22;9540;51.550;7.980;2022-08-11T01:12:25;12.90;99.90
18823;DHT22;9540;51.550;7.980;2022-08-11T01:15:26;12.80;99.90
18823;DHT22;9540;51.550;7.980;2022-08-11T01:18:26;12.80;99.90
18823;DHT22;9540;51.550;7.980;2022-08-11T01:34:00;12.80;99.90
18823;DHT22;9540;51.550;7.980;2022-08-11T01:37:00;12.90;99.90
18823;DHT22;9540;51.550;7.980;2022-08-11T01:39:52;12.90;99.90
18823;DHT22;9540;51.550;7.980;2022-08-11T01:42:49;13.00;99.90
18823;DHT22;9540;51.550;7.980;2022-08-11T01:45:43;13.00;99.90
18823;DHT22;9540;51.550;7.980;2022-08-11T01:48:18;13.00;99.90
18823;DHT22;9540;51.550;7.980;2022-08-11T01:51:07;12.90;99.90
18823;DHT22;9540;51.550;7.980;2022-08-11T01:53:47;12.90;99.90
18823;DHT22;9540;51.550;7.980;2022-08-11T01:56:32;12.90;99.90
18823;DHT22;9540;51.550;7.980;2022-08-11T01:59:10;12.90;99.90
18823;DHT22;9540;51.550;7.980;2022-08-11T02:01:59;12.90;99.90
18823;DHT22;9540;51.550;7.980;2022-08-11T02:04:32;12.80;99.90
18823;DHT22;9540;51.550;7.980;2022-08-11T02:07:09;12.80;99.90
18823;DHT22;9540;51.550;7.980;2022-08-11T02:09:49;12.80;99.90
18823;DHT22;9540;51.550;7.980;2022-08-11T02:12:38;12.80;99.90
18823;DHT22;9540;51.550;7.980;2022-08-11T02:15:13;12.70;99.90
18823;DHT22;9540;51.550;7.980;2022-08-11T02:17:49;12.70;99.90
18823;DHT22;9540;51.550;7.980;2022-08-11T02:20:23;12.70;99.90
18823;DHT22;9540;51.550;7.980;2022-08-11T02:23:20;12.60;99.90
18823;DHT22;9540;51.550;7.980;2022-08-11T02:26:08;12.60;99.90
18823;DHT22;9540;51.550;7.980;2022-08-11T02:28:52;12.50;99.90
18823;DHT22;9540;51.550;7.980;2022-08-11T02:34:39;12.30;99.90
18823;DHT22;9540;51.550;7.980;2022-08-11T02:37:17;12.30;99.90
18823;DHT22;9540;51.550;7.980;2022-08-11T02:40:09;12.30;99.90
18823;DHT22;9540;51.550;7.980;2022-08-11T02:42:48;12.30;99.90
18823;DHT22;9540;51.550;7.980;2022-08-11T02:45:31;12.30;99.90
18823;DHT22;9540;51.550;7.980;2022-08-11T02:48:05;12.20;99.90
18823;DHT22;9540;51.550;7.980;2022-08-11T02:51:00;12.20;99.90
18823;DHT22;9540;51.550;7.980;2022-08-11T02:53:35;12.20;99.90
18823;DHT22;9540;51.550;7.980;2022-08-11T02:56:10;12.10;99.90
18823;DHT22;9540;51.550;7.980;2022-08-11T02:58:49;12.10;99.90
18823;DHT22;9540;51.550;7.980;2022-08-11T03:01:40;12.00;99.90
18823;DHT22;9540;51.550;7.980;2022-08-11T03:04:16;12.00;99.90
18823;DHT22;9540;51.550;7.980;2022-08-11T03:06:49;12.00;99.90
18823;DHT22;9540;51.550;7.980;2022-08-11T03:09:23;12.00;99.90
18823;DHT22;9540;51.550;7.980;2022-08-11T03:11:58;12.00;99.90
18823;DHT22;9540;51.550;7.980;2022-08-11T03:14:51;12.00;99.90
18823;DHT22;9540;51.550;7.980;2022-08-11T03:17:45;12.00;99.90
18823;DHT22;9540;51.550;7.980;2022-08-11T03:20:27;12.00;99.90
18823;DHT22;9540;51.550;7.980;2022-08-11T03:23:02;12.00;99.90
18823;DHT22;9540;51.550;7.980;2022-08-11T03:25:41;12.00;99.90
18823;DHT22;9540;51.550;7.980;2022-08-11T03:28:20;12.00;99.90
18823;DHT22;9540;51.550;7.980;2022-08-11T03:30:55;12.00;99.90
18823;DHT22;9540;51.550;7.980;2022-08-11T03:33:27;12.00;99.90
18823;DHT22;9540;51.550;7.980;2022-08-11T03:36:22;12.00;99.90
18823;DHT22;9540;51.550;7.980;2022-08-11T03:39:11;12.00;99.90
18823;DHT22;9540;51.550;7.980;2022-08-11T03:41:52;11.90;99.90
18823;DHT22;9540;51.550;7.980;2022-08-11T03:44:31;11.90;99.90
18823;DHT22;9540;51.550;7.980;2022-08-11T03:50:07;11.90;99.90
18823;DHT22;9540;51.550;7.980;2022-08-11T03:52:48;11.90;99.90
18823;DHT22;9540;51.550;7.980;2022-08-11T03:55:26;11.90;99.90
18823;DHT22;9540;51.550;7.980;2022-08-11T03:58:23;11.80;99.90
18823;DHT22;9540;51.550;7.980;2022-08-11T04:04:30;11.70;99.90
18823;DHT22;9540;51.550;7.980;2022-08-11T04:10:24;11.60;99.90
18823;DHT22;9540;51.550;7.980;2022-08-11T04:13:34;11.60;99.90
18823;DHT22;9540;51.550;7.980;2022-08-11T04:16:15;11.60;99.90
18823;DHT22;9540;51.550;7.980;2022-08-11T04:22:30;11.60;99.90
18823;DHT22;9540;51.550;7.980;2022-08-11T04:25:14;11.60;99.90
18823;DHT22;9540;51.550;7.980;2022-08-11T04:28:05;11.60;99.90
18823;DHT22;9540;51.550;7.980;2022-08-11T04:30:52;11.70;99.90
18823;DHT22;9540;51.550;7.980;2022-08-11T04:34:02;11.70;99.90
18823;DHT22;9540;51.550;7.980;2022-08-11T04:36:56;11.70;99.90
18823;DHT22;9540;51.550;7.980;2022-08-11T04:39:53;11.80;99.90
18823;DHT22;9540;51.550;7.980;2022-08-11T04:49:22;11.90;99.90
18823;DHT22;9540;51.550;7.980;2022-08-11T04:52:39;12.00;99.90
18823;DHT22;9540;51.550;7.980;2022-08-11T04:55:53;12.20;99.90
18823;DHT22;9540;51.550;7.980;2022-08-11T04:58:48;12.40;99.90
18823;DHT22;9540;51.550;7.980;2022-08-11T05:01:45;12.50;99.90
18823;DHT22;9540;51.550;7.980;2022-08-11T05:04:39;12.80;99.90
18823;DHT22;9540;51.550;7.980;2022-08-11T05:07:50;13.00;99.90
18823;DHT22;9540;51.550;7.980;2022-08-11T05:10:48;13.30;99.90
18823;DHT22;9540;51.550;7.980;2022-08-11T05:13:26;13.50;99.90
18823;DHT22;9540;51.550;7.980;2022-08-11T05:16:14;13.70;99.90
18823;DHT22;9540;51.550;7.980;2022-08-11T05:19:01;13.80;99.90
18823;DHT22;9540;51.550;7.980;2022-08-11T05:21:52;14.00;99.90
18823;DHT22;9540;51.550;7.980;2022-08-11T05:24:44;14.10;99.90
18823;DHT22;9540;51.550;7.980;2022-08-11T05:27:39;14.30;99.90
18823;DHT22;9540;51.550;7.980;2022-08-11T05:30:27;14.40;99.90
18823;DHT22;9540;51.550;7.980;2022-08-11T05:33:20;14.60;99.90
18823;DHT22;9540;51.550;7.980;2022-08-11T05:36:11;14.80;99.90
18823;DHT22;9540;51.550;7.980;2022-08-11T05:38:49;15.00;99.90
18823;DHT22;9540;51.550;7.980;2022-08-11T05:41:38;15.20;99.90
18823;DHT22;9540;51.550;7.980;2022-08-11T05:44:26;15.40;99.90
18823;DHT22;9540;51.550;7.980;2022-08-11T05:47:21;15.60;99.90
18823;DHT22;9540;51.550;7.980;2022-08-11T05:50:08;15.80;99.90
18823;DHT22;9540;51.550;7.980;2022-08-11T05:52:53;15.90;99.90
18823;DHT22;9540;51.550;7.980;2022-08-11T05:55:39;16.10;99.90
18823;DHT22;9540;51.550;7.980;2022-08-11T05:58:24;16.20;99.90
18823;DHT22;9540;51.550;7.980;2022-08-11T06:00:53;16.30;99.90
18823;DHT22;9540;51.550;7.980;2022-08-11T06:03:25;16.50;99.90
18823;DHT22;9540;51.550;7.980;2022-08-11T06:05:53;16.60;99.90
18823;DHT22;9540;51.550;7.980;2022-08-11T06:08:27;16.70;99.90
18823;DHT22;9540;51.550;7.980;2022-08-11T06:10:59;16.90;99.90
18823;DHT22;9540;51.550;7.980;2022-08-11T06:13:26;17.00;99.90
18823;DHT22;9540;51.550;7.980;2022-08-11T06:15:56;17.20;99.90
18823;DHT22;9540;51.550;7.980;2022-08-11T06:18:24;17.30;99.90
18823;DHT22;9540;51.550;7.980;2022-08-11T06:20:54;17.50;99.90
18823;DHT22;9540;51.550;7.980;2022-08-11T06:23:30;17.60;99.90
18823;DHT22;9540;51.550;7.980;2022-08-11T06:25:59;17.80;99.90
18823;DHT22;9540;51.550;7.980;2022-08-11T06:28:31;18.00;99.90
18823;DHT22;9540;51.550;7.980;2022-08-11T06:31:01;18.10;99.90
18823;DHT22;9540;51.550;7.980;2022-08-11T06:33:32;18.30;99.90
18823;DHT22;9540;51.550;7.980;2022-08-11T06:36:03;18.40;99.90
18823;DHT22;9540;51.550;7.980;2022-08-11T06:38:52;18.60;99.90
18823;DHT22;9540;51.550;7.980;2022-08-11T06:41:24;18.70;99.90
18823;DHT22;9540;51.550;7.980;2022-08-11T06:44:10;18.80;99.90
18823;DHT22;9540;51.550;7.980;2022-08-11T06:46:43;18.90;99.90
18823;DHT22;9540;51.550;7.980;2022-08-11T06:49:15;19.10;99.90
18823;DHT22;9540;51.550;7.980;2022-08-11T06:52:01;19.20;99.90
18823;DHT22;9540;51.550;7.980;2022-08-11T06:54:31;19.40;99.90
18823;DHT22;9540;51.550;7.980;2022-08-11T06:56:59;19.40;99.90
18823;DHT22;9540;51.550;7.980;2022-08-11T06:59:46;19.50;99.90
18823;DHT22;9540;51.550;7.980;2022-08-11T07:02:36;19.60;99.90
18823;DHT22;9540;51.550;7.980;2022-08-11T07:05:09;19.70;99.90
18823;DHT22;9540;51.550;7.980;2022-08-11T07:11:29;19.70;99.90
18823;DHT22;9540;51.550;7.980;2022-08-11T07:14:26;19.90;99.90
18823;DHT22;9540;51.550;7.980;2022-08-11T07:17:14;20.20;99.90
18823;DHT22;9540;51.550;7.980;2022-08-11T07:19:49;20.30;99.90
18823;DHT22;9540;51.550;7.980;2022-08-11T07:22:35;20.40;99.90
18823;DHT22;9540;51.550;7.980;2022-08-11T07:25:21;20.50;99.90
18823;DHT22;9540;51.550;7.980;2022-08-11T07:28:24;20.60;99.90
18823;DHT22;9540;51.550;7.980;2022-08-11T07:31:12;20.70;99.90
18823;DHT22;9540;51.550;7.980;2022-08-11T07:33:45;20.80;99.90
18823;DHT22;9540;51.550;7.980;2022-08-11T07:36:15;20.90;99.90
18823;DHT22;9540;51.550;7.980;2022-08-11T07:38:46;21.10;99.90
18823;DHT22;9540;51.550;7.980;2022-08-11T07:41:17;21.20;99.90
18823;DHT22;9540;51.550;7.980;2022-08-11T07:43:46;21.30;99.90
18823;DHT22;9540;51.550;7.980;2022-08-11T07:46:15;21.50;99.90
18823;DHT22;9540;51.550;7.980;2022-08-11T07:49:01;21.70;99.90
18823;DHT22;9540;51.550;7.980;2022-08-11T07:51:48;21.90;99.90
18823;DHT22;9540;51.550;7.980;2022-08-11T07:54:33;22.10;99.90
18823;DHT22;9540;51.550;7.980;2022-08-11T07:57:02;22.30;99.90
18823;DHT22;9540;51.550;7.980;2022-08-11T07:59:48;22.40;99.90
18823;DHT22;9540;51.550;7.980;2022-08-11T08:02:33;22.50;99.90
18823;DHT22;9540;51.550;7.980;2022-08-11T08:05:18;22.60;99.90
18823;DHT22;9540;51.550;7.980;2022-08-11T08:08:04;22.80;99.90
18823;DHT22;9540;51.550;7.980;2022-08-11T08:10:51;23.00;99.90
18823;DHT22;9540;51.550;7.980;2022-08-11T08:13:37;23.10;99.90
18823;DHT22;9540;51.550;7.980;2022-08-11T08:16:22;23.20;99.90
18823;DHT22;9540;51.550;7.980;2022-08-11T08:19:10;23.40;99.90
18823;DHT22;9540;51.550;7.980;2022-08-11T08:21:38;23.60;99.90
18823;DHT22;9540;51.550;7.980;2022-08-11T08:24:06;23.70;99.90
18823;DHT22;9540;51.550;7.980;2022-08-11T08:26:34;23.90;99.90
18823;DHT22;9540;51.550;7.980;2022-08-11T08:29:19;24.10;99.90
18823;DHT22;9540;51.550;7.980;2022-08-11T08:32:06;24.30;99.90
18823;DHT22;9540;51.550;7.980;2022-08-11T08:34:34;24.50;99.90
18823;DHT22;9540;51.550;7.980;2022-08-11T08:37:03;24.60;99.90
18823;DHT22;9540;51.550;7.980;2022-08-11T08:39:32;24.70;99.90
18823;DHT22;9540;51.550;7.980;2022-08-11T08:42:05;24.80;99.90
18823;DHT22;9540;51.550;7.980;2022-08-11T08:44:34;24.90;99.90
18823;DHT22;9540;51.550;7.980;2022-08-11T08:47:03;25.00;99.90
18823;DHT22;9540;51.550;7.980;2022-08-11T08:49:34;25.10;99.90
18823;DHT22;9540;51.550;7.980;2022-08-11T08:52:04;25.30;99.90
18823;DHT22;9540;51.550;7.980;2022-08-11T08:54:35;25.40;99.90
18823;DHT22;9540;51.550;7.980;2022-08-11T08:57:03;25.60;97.60
18823;DHT22;9540;51.550;7.980;2022-08-11T08:59:35;25.80;96.70
18823;DHT22;9540;51.550;7.980;2022-08-11T09:02:05;26.10;94.40
18823;DHT22;9540;51.550;7.980;2022-08-11T09:04:33;26.20;94.70
18823;DHT22;9540;51.550;7.980;2022-08-11T09:07:07;26.30;93.60
18823;DHT22;9540;51.550;7.980;2022-08-11T09:09:41;26.40;92.60
18823;DHT22;9540;51.550;7.980;2022-08-11T09:12:09;26.60;91.60
18823;DHT22;9540;51.550;7.980;2022-08-11T09:14:39;26.70;91.20
18823;DHT22;9540;51.550;7.980;2022-08-11T09:17:25;26.70;91.00
18823;DHT22;9540;51.550;7.980;2022-08-11T09:19:55;26.80;90.20
18823;DHT22;9540;51.550;7.980;2022-08-11T09:22:25;26.90;89.90
18823;DHT22;9540;51.550;7.980;2022-08-11T09:25:12;27.00;87.80
18823;DHT22;9540;51.550;7.980;2022-08-11T09:27:56;27.10;87.30
18823;DHT22;9540;51.550;7.980;2022-08-11T09:30:25;27.20;86.20
18823;DHT22;9540;51.550;7.980;2022-08-11T09:32:54;27.10;85.10
18823;DHT22;9540;51.550;7.980;2022-08-11T09:35:24;27.40;84.00
18823;DHT22;9540;51.550;7.980;2022-08-11T09:37:52;27.90;82.50
18823;DHT22;9540;51.550;7.980;2022-08-11T09:40:40;28.50;79.60
18823;DHT22;9540;51.550;7.980;2022-08-11T09:43:10;28.60;77.30
18823;DHT22;9540;51.550;7.980;2022-08-11T09:45:57;28.50;73.70
18823;DHT22;9540;51.550;7.980;2022-08-11T09:48:25;28.50;75.50
18823;DHT22;9540;51.550;7.980;2022-08-11T09:50:54;28.70;75.70
18823;DHT22;9540;51.550;7.980;2022-08-11T09:53:24;28.70;73.70
18823;DHT22;9540;51.550;7.980;2022-08-11T09:55:53;28.80;72.50
18823;DHT22;9540;51.550;7.980;2022-08-11T09:58:21;28.80;70.50
18823;DHT22;9540;51.550;7.980;2022-08-11T10:00:49;28.80;70.90
18823;DHT22;9540;51.550;7.980;2022-08-11T10:03:17;28.80;70.50
18823;DHT22;9540;51.550;7.980;2022-08-11T10:05:48;29.00;68.90
18823;DHT22;9540;51.550;7.980;2022-08-11T10:08:34;29.00;67.70
18823;DHT22;9540;51.550;7.980;2022-08-11T10:11:05;29.00;68.50
18823;DHT22;9540;51.550;7.980;2022-08-11T10:13:38;29.10;68.40
18823;DHT22;9540;51.550;7.980;2022-08-11T10:16:25;29.20;69.70
18823;DHT22;9540;51.550;7.980;2022-08-11T10:18:54;29.30;64.50
18823;DHT22;9540;51.550;7.980;2022-08-11T10:21:28;29.30;65.90
18823;DHT22;9540;51.550;7.980;2022-08-11T10:23:58;29.30;64.50
18823;DHT22;9540;51.550;7.980;2022-08-11T10:26:46;29.30;62.80
18823;DHT22;9540;51.550;7.980;2022-08-11T10:29:19;29.30;62.80
18823;DHT22;9540;51.550;7.980;2022-08-11T10:32:05;29.30;61.40
18823;DHT22;9540;51.550;7.980;2022-08-11T10:34:51;29.40;62.90
18823;DHT22;9540;51.550;7.980;2022-08-11T10:37:21;29.40;61.90
18823;DHT22;9540;51.550;7.980;2022-08-11T10:39:50;29.50;60.50
18823;DHT22;9540;51.550;7.980;2022-08-11T10:42:18;29.50;61.40
18823;DHT22;9540;51.550;7.980;2022-08-11T10:45:05;29.60;59.40
18823;DHT22;9540;51.550;7.980;2022-08-11T10:47:55;29.60;59.50
18823;DHT22;9540;51.550;7.980;2022-08-11T10:50:22;29.70;61.00
18823;DHT22;9540;51.550;7.980;2022-08-11T10:53:08;29.60;60.00
18823;DHT22;9540;51.550;7.980;2022-08-11T10:55:53;29.70;59.40
18823;DHT22;9540;51.550;7.980;2022-08-11T10:58:40;29.70;60.20
18823;DHT22;9540;51.550;7.980;2022-08-11T11:01:20;29.70;60.10
18823;DHT22;9540;51.550;7.980;2022-08-11T11:03:49;29.70;59.30
18823;DHT22;9540;51.550;7.980;2022-08-11T11:06:22;29.70;60.00
18823;DHT22;9540;51.550;7.980;2022-08-11T11:08:55;29.70;59.10
18823;DHT22;9540;51.550;7.980;2022-08-11T11:11:24;29.80;58.00
18823;DHT22;9540;51.550;7.980;2022-08-11T11:14:17;29.70;58.60
18823;DHT22;9540;51.550;7.980;2022-08-11T11:17:04;29.80;58.60
18823;DHT22;9540;51.550;7.980;2022-08-11T11:19:52;29.80;59.30
18823;DHT22;9540;51.550;7.980;2022-08-11T11:22:20;29.80;58.30
18823;DHT22;9540;51.550;7.980;2022-08-11T11:25:21;29.90;59.30
18823;DHT22;9540;51.550;7.980;2022-08-11T11:28:06;30.00;58.70
18823;DHT22;9540;51.550;7.980;2022-08-11T11:30:44;30.00;58.80
18823;DHT22;9540;51.550;7.980;2022-08-11T11:33:23;30.00;58.90
18823;DHT22;9540;51.550;7.980;2022-08-11T11:36:05;30.00;58.60
18823;DHT22;9540;51.550;7.980;2022-08-11T11:38:35;30.10;58.80
18823;DHT22;9540;51.550;7.980;2022-08-11T11:41:02;30.20;58.10
18823;DHT22;9540;51.550;7.980;2022-08-11T11:43:47;30.30;58.20
18823;DHT22;9540;51.550;7.980;2022-08-11T11:46:16;30.30;59.70
18823;DHT22;9540;51.550;7.980;2022-08-11T11:48:43;30.30;57.80
18823;DHT22;9540;51.550;7.980;2022-08-11T11:51:10;30.30;59.40
18823;DHT22;9540;51.550;7.980;2022-08-11T11:53:40;30.40;58.10
18823;DHT22;9540;51.550;7.980;2022-08-11T11:56:09;30.40;57.60
18823;DHT22;9540;51.550;7.980;2022-08-11T11:58:37;30.40;57.50
18823;DHT22;9540;51.550;7.980;2022-08-11T12:01:24;30.30;57.00
18823;DHT22;9540;51.550;7.980;2022-08-11T12:03:53;30.30;57.00
18823;DHT22;9540;51.550;7.980;2022-08-11T12:06:21;30.30;58.40
18823;DHT22;9540;51.550;7.980;2022-08-11T12:08:53;30.30;57.00
18823;DHT22;9540;51.550;7.980;2022-08-11T12:11:22;30.30;57.70
18823;DHT22;9540;51.550;7.980;2022-08-11T12:14:07;30.20;56.90
18823;DHT22;9540;51.550;7.980;2022-08-11T12:16:38;30.20;56.40
18823;DHT22;9540;51.550;7.980;2022-08-11T12:19:09;30.20;55.90
18823;DHT22;9540;51.550;7.980;2022-08-11T12:21:38;30.20;55.70
18823;DHT22;9540;51.550;7.980;2022-08-11T12:24:27;30.10;56.20
18823;DHT22;9540;51.550;7.980;2022-08-11T12:27:13;30.00;56.20
18823;DHT22;9540;51.550;7.980;2022-08-11T12:29:47;30.10;56.70
18823;DHT22;9540;51.550;7.980;2022-08-11T12:32:16;30.20;57.30
18823;DHT22;9540;51.550;7.980;2022-08-11T12:34:44;30.30;55.90
18823;DHT22;9540;51.550;7.980;2022-08-11T12:37:21;30.30;55.80
18823;DHT22;9540;51.550;7.980;2022-08-11T12:39:52;30.10;55.50
18823;DHT22;9540;51.550;7.980;2022-08-11T12:42:40;30.20;57.40
18823;DHT22;9540;51.550;7.980;2022-08-11T12:45:26;30.30;55.10
18823;DHT22;9540;51.550;7.980;2022-08-11T12:48:05;30.20;55.90
18823;DHT22;9540;51.550;7.980;2022-08-11T12:50:54;30.30;56.90
18823;DHT22;9540;51.550;7.980;2022-08-11T12:53:43;30.40;57.20
18823;DHT22;9540;51.550;7.980;2022-08-11T12:56:12;30.40;56.20
18823;DHT22;9540;51.550;7.980;2022-08-11T12:58:57;30.40;57.30
18823;DHT22;9540;51.550;7.980;2022-08-11T13:01:43;30.50;56.10
18823;DHT22;9540;51.550;7.980;2022-08-11T13:04:29;30.50;55.30
18823;DHT22;9540;51.550;7.980;2022-08-11T13:07:15;30.40;55.20
18823;DHT22;9540;51.550;7.980;2022-08-11T13:09:44;30.20;54.70
18823;DHT22;9540;51.550;7.980;2022-08-11T13:12:12;30.10;56.10
18823;DHT22;9540;51.550;7.980;2022-08-11T13:14:58;30.10;56.60
18823;DHT22;9540;51.550;7.980;2022-08-11T13:17:26;30.20;56.80
18823;DHT22;9540;51.550;7.980;2022-08-11T13:19:57;30.30;56.90
18823;DHT22;9540;51.550;7.980;2022-08-11T13:22:25;30.30;55.60
18823;DHT22;9540;51.550;7.980;2022-08-11T13:24:53;30.30;56.00
18823;DHT22;9540;51.550;7.980;2022-08-11T13:27:21;30.20;55.90
18823;DHT22;9540;51.550;7.980;2022-08-11T13:29:50;30.20;56.20
18823;DHT22;9540;51.550;7.980;2022-08-11T13:32:39;30.30;56.10
18823;DHT22;9540;51.550;7.980;2022-08-11T13:35:10;30.30;56.80
18823;DHT22;9540;51.550;7.980;2022-08-11T13:37:40;30.40;55.40
18823;DHT22;9540;51.550;7.980;2022-08-11T13:40:09;30.30;57.60
18823;DHT22;9540;51.550;7.980;2022-08-11T13:42:37;30.40;58.00
18823;DHT22;9540;51.550;7.980;2022-08-11T13:45:06;30.50;57.60
18823;DHT22;9540;51.550;7.980;2022-08-11T13:47:34;30.50;56.00
18823;DHT22;9540;51.550;7.980;2022-08-11T13:50:01;30.40;55.20
18823;DHT22;9540;51.550;7.980;2022-08-11T13:52:30;30.30;56.60
18823;DHT22;9540;51.550;7.980;2022-08-11T13:54:58;30.30;55.60
18823;DHT22;9540;51.550;7.980;2022-08-11T13:57:29;30.20;55.90
18823;DHT22;9540;51.550;7.980;2022-08-11T13:59:58;30.20;57.20
18823;DHT22;9540;51.550;7.980;2022-08-11T14:02:36;30.30;56.00
18823;DHT22;9540;51.550;7.980;2022-08-11T14:05:09;30.30;56.80
18823;DHT22;9540;51.550;7.980;2022-08-11T14:07:42;30.30;56.20
18823;DHT22;9540;51.550;7.980;2022-08-11T14:10:13;30.40;56.00
18823;DHT22;9540;51.550;7.980;2022-08-11T14:12:46;30.50;56.30
18823;DHT22;9540;51.550;7.980;2022-08-11T14:15:34;30.50;55.00
18823;DHT22;9540;51.550;7.980;2022-08-11T14:18:05;30.50;55.40
18823;DHT22;9540;51.550;7.980;2022-08-11T14:20:36;30.50;54.40
18823;DHT22;9540;51.550;7.980;2022-08-11T14:23:26;30.40;54.90
18823;DHT22;9540;51.550;7.980;2022-08-11T14:25:54;30.30;55.00
18823;DHT22;9540;51.550;7.980;2022-08-11T14:28:39;30.30;57.00
18823;DHT22;9540;51.550;7.980;2022-08-11T14:31:07;30.40;55.50
18823;DHT22;9540;51.550;7.980;2022-08-11T14:33:35;30.50;55.20
18823;DHT22;9540;51.550;7.980;2022-08-11T14:36:03;30.60;56.50
18823;DHT22;9540;51.550;7.980;2022-08-11T14:38:33;30.60;55.00
18823;DHT22;9540;51.550;7.980;2022-08-11T14:41:01;30.60;55.10
18823;DHT22;9540;51.550;7.980;2022-08-11T14:43:46;30.70;55.30
18823;DHT22;9540;51.550;7.980;2022-08-11T14:46:32;30.60;56.10
18823;DHT22;9540;51.550;7.980;2022-08-11T14:49:17;30.70;55.80
18823;DHT22;9540;51.550;7.980;2022-08-11T14:51:45;30.60;54.40
18823;DHT22;9540;51.550;7.980;2022-08-11T14:54:14;30.60;55.70
18823;DHT22;9540;51.550;7.980;2022-08-11T14:56:59;30.60;54.90
18823;DHT22;9540;51.550;7.980;2022-08-11T14:59:28;30.50;55.80
18823;DHT22;9540;51.550;7.980;2022-08-11T15:01:55;30.60;56.10
18823;DHT22;9540;51.550;7.980;2022-08-11T15:04:40;30.60;56.10
18823;DHT22;9540;51.550;7.980;2022-08-11T15:07:08;30.60;57.20
18823;DHT22;9540;51.550;7.980;2022-08-11T15:09:36;30.60;55.90
18823;DHT22;9540;51.550;7.980;2022-08-11T15:12:08;30.60;56.40
18823;DHT22;9540;51.550;7.980;2022-08-11T15:14:43;30.60;57.30
18823;DHT22;9540;51.550;7.980;2022-08-11T15:17:28;30.60;56.80
18823;DHT22;9540;51.550;7.980;2022-08-11T15:19:59;30.60;56.30
18823;DHT22;9540;51.550;7.980;2022-08-11T15:22:41;30.70;56.40
18823;DHT22;9540;51.550;7.980;2022-08-11T15:25:27;30.70;57.00
18823;DHT22;9540;51.550;7.980;2022-08-11T15:27:55;30.70;57.30
18823;DHT22;9540;51.550;7.980;2022-08-11T15:30:42;30.70;57.30
18823;DHT22;9540;51.550;7.980;2022-08-11T15:33:27;30.80;57.50
18823;DHT22;9540;51.550;7.980;2022-08-11T15:36:13;30.80;57.00
18823;DHT22;9540;51.550;7.980;2022-08-11T15:38:59;30.70;57.00
18823;DHT22;9540;51.550;7.980;2022-08-11T15:41:38;30.70;56.90
18823;DHT22;9540;51.550;7.980;2022-08-11T15:44:27;30.70;56.30
18823;DHT22;9540;51.550;7.980;2022-08-11T15:47:12;30.70;55.80
18823;DHT22;9540;51.550;7.980;2022-08-11T15:49:40;30.70;56.20
18823;DHT22;9540;51.550;7.980;2022-08-11T15:52:09;30.70;56.60
18823;DHT22;9540;51.550;7.980;2022-08-11T15:54:40;30.70;57.00
18823;DHT22;9540;51.550;7.980;2022-08-11T15:57:09;30.80;56.20
18823;DHT22;9540;51.550;7.980;2022-08-11T15:59:58;30.80;56.60
18823;DHT22;9540;51.550;7.980;2022-08-11T16:02:47;30.80;56.60
18823;DHT22;9540;51.550;7.980;2022-08-11T16:05:32;30.90;55.60
18823;DHT22;9540;51.550;7.980;2022-08-11T16:08:00;30.80;55.80
18823;DHT22;9540;51.550;7.980;2022-08-11T16:10:28;30.80;56.00
18823;DHT22;9540;51.550;7.980;2022-08-11T16:12:59;30.70;56.10
18823;DHT22;9540;51.550;7.980;2022-08-11T16:15:45;30.70;55.70
18823;DHT22;9540;51.550;7.980;2022-08-11T16:18:32;30.60;55.30
18823;DHT22;9540;51.550;7.980;2022-08-11T16:21:09;30.70;56.10
18823;DHT22;9540;51.550;7.980;2022-08-11T16:23:37;30.70;56.40
18823;DHT22;9540;51.550;7.980;2022-08-11T16:26:05;30.80;55.70
18823;DHT22;9540;51.550;7.980;2022-08-11T16:28:35;30.80;56.60
18823;DHT22;9540;51.550;7.980;2022-08-11T16:31:05;30.90;55.10
18823;DHT22;9540;51.550;7.980;2022-08-11T16:33:36;30.90;54.50
18823;DHT22;9540;51.550;7.980;2022-08-11T16:36:07;30.90;54.90
18823;DHT22;9540;51.550;7.980;2022-08-11T16:38:53;30.80;55.10
18823;DHT22;9540;51.550;7.980;2022-08-11T16:41:23;30.80;55.60
18823;DHT22;9540;51.550;7.980;2022-08-11T16:44:10;30.90;55.40
18823;DHT22;9540;51.550;7.980;2022-08-11T16:46:57;30.90;56.20
18823;DHT22;9540;51.550;7.980;2022-08-11T16:49:31;30.90;55.50
18823;DHT22;9540;51.550;7.980;2022-08-11T16:51:58;30.90;55.10
18823;DHT22;9540;51.550;7.980;2022-08-11T16:54:29;30.80;56.00
18823;DHT22;9540;51.550;7.980;2022-08-11T16:56:59;30.80;55.90
18823;DHT22;9540;51.550;7.980;2022-08-11T16:59:50;30.90;55.60
18823;DHT22;9540;51.550;7.980;2022-08-11T17:02:17;30.70;55.80
18823;DHT22;9540;51.550;7.980;2022-08-11T17:05:08;30.60;56.20
18823;DHT22;9540;51.550;7.980;2022-08-11T17:07:56;30.60;56.30
18823;DHT22;9540;51.550;7.980;2022-08-11T17:10:47;30.50;57.00
18823;DHT22;9540;51.550;7.980;2022-08-11T17:13:36;30.50;57.10
18823;DHT22;9540;51.550;7.980;2022-08-11T17:16:08;30.60;56.10
18823;DHT22;9540;51.550;7.980;2022-08-11T17:18:41;30.50;57.00
18823;DHT22;9540;51.550;7.980;2022-08-11T17:21:21;30.40;56.50
18823;DHT22;9540;51.550;7.980;2022-08-11T17:23:52;30.40;56.80
18823;DHT22;9540;51.550;7.980;2022-08-11T17:26:26;30.40;56.40
18823;DHT22;9540;51.550;7.980;2022-08-11T17:29:14;30.30;57.20
18823;DHT22;9540;51.550;7.980;2022-08-11T17:31:45;30.30;57.20
18823;DHT22;9540;51.550;7.980;2022-08-11T17:34:29;30.20;57.80
18823;DHT22;9540;51.550;7.980;2022-08-11T17:37:27;30.20;58.00
18823;DHT22;9540;51.550;7.980;2022-08-11T17:39:57;30.20;57.80